»·PEaware :: SWA1451 KSFO-KSAN

SWA1451 :: KSFO-KSAN

FLIGHT INFORMATION

Flight Status: Arrived
Operator:
Southwest Airlines
More flights by this operator :: More flights under this callsign
Pilot: Ben F. (2808)
Aircraft: BOEING 737-300
(B733)
More flights by this aircraft type
Origin: KSFO San Francisco Intl
United States
Destination: KSAN San Diego Intl-Lindbergh
United States
More flights between these airports :: More routes between these airports
Route: OFFSH1 MCKEY LAX COMIX1
File this flight plan on PilotEdge
Remarks:
Altitude:
(Current/Filed)
35,000ft
Speed:
(Current/Filed)
433kts
Departed: 16-May-18 07:19 AM
Arrived: 16-May-18 08:33 AM
Distance/Time
Traveled:
388nm/1:14
Distance/Time
To Go:
Arrived

Flight Plot

Page will automatically refresh every two minutes.

Flight plan parsing failed; only flown route is shown


Map Options




Map Legend


Flown Route
Filed Route
Departure Airport
Arrival Airport
Navaid (VOR, NDB)
Fix

Horizontal Profiles

Position Reports

Time Latitude Longitude Heading Altitude Ground
Speed
16-May-18 07:02 37.612257 -122.384123 30 20ft 0kts
16-May-18 07:03 37.612257 -122.384123 30 20ft 0kts
16-May-18 07:04 37.612257 -122.384123 30 20ft 0kts
16-May-18 07:05 37.612257 -122.384123 30 20ft 0kts
16-May-18 07:06 37.612257 -122.384123 30 20ft 0kts
16-May-18 07:07 37.612257 -122.384123 30 20ft 0kts
16-May-18 07:08 37.612257 -122.384123 30 20ft 0kts
16-May-18 07:09 37.612257 -122.384123 30 20ft 0kts
16-May-18 07:10 37.612257 -122.384123 30 20ft 0kts
16-May-18 07:11 37.612174 -122.384186 30 20ft 2kts
16-May-18 07:12 37.611701 -122.384639 59 20ft 2kts
16-May-18 07:13 37.611605 -122.385015 83 20ft 0kts
16-May-18 07:14 37.611605 -122.385015 83 20ft 0kts
16-May-18 07:15 37.611260 -122.383753 127 20ft 8kts
16-May-18 07:16 37.609050 -122.383383 121 20ft 0kts
16-May-18 07:17 37.608935 -122.383136 119 20ft 6kts
16-May-18 07:18 37.609746 -122.381702 27 20ft 34kts
16-May-18 07:19 37.645709 -122.361519 0 1333ft 181kts
16-May-18 07:20 37.705614 -122.368691 322 3203ft 254kts
16-May-18 07:21 37.702936 -122.443721 214 6181ft 261kts
16-May-18 07:22 37.645194 -122.501068 216 9213ft 273kts
16-May-18 07:23 37.585427 -122.564315 216 11595ft 301kts
16-May-18 07:24 37.517709 -122.636148 209 13549ft 337kts
16-May-18 07:25 37.426366 -122.643093 172 15637ft 345kts
16-May-18 07:26 37.330134 -122.628023 172 17969ft 357kts
16-May-18 07:27 37.229938 -122.612792 173 20077ft 370kts
16-May-18 07:28 37.126278 -122.596977 173 21995ft 383kts
16-May-18 07:29 37.019795 -122.580866 177 23812ft 393kts
16-May-18 07:30 36.908187 -122.558308 174 24987ft 420kts
16-May-18 07:31 36.795191 -122.528725 174 26625ft 426kts
16-May-18 07:32 36.678331 -122.498410 174 28051ft 435kts
16-May-18 07:33 36.560497 -122.467877 175 29757ft 433kts
16-May-18 07:34 36.443728 -122.437777 174 31295ft 431kts
16-May-18 07:35 36.353498 -122.334297 134 32528ft 463kts
16-May-18 07:36 36.272355 -122.213266 137 33760ft 457kts
16-May-18 07:37 36.190349 -122.093944 137 34723ft 456kts
16-May-18 07:38 36.108947 -121.975524 137 35150ft 453kts
16-May-18 07:39 36.026809 -121.857848 137 35149ft 455kts
16-May-18 07:40 35.944540 -121.739361 137 35152ft 455kts
16-May-18 07:41 35.862765 -121.622262 137 35151ft 455kts
16-May-18 07:42 35.780328 -121.504508 137 35150ft 455kts
16-May-18 07:43 35.697950 -121.387109 137 35151ft 455kts
16-May-18 07:44 35.617850 -121.273041 138 35151ft 453kts
16-May-18 07:45 35.535215 -121.156048 138 35152ft 455kts
16-May-18 07:46 35.455999 -121.036672 132 35149ft 456kts
16-May-18 07:47 35.384390 -120.909782 134 35138ft 451kts
16-May-18 07:48 35.312666 -120.783852 134 35141ft 452kts
16-May-18 07:49 35.244280 -120.663357 134 35141ft 452kts
16-May-18 07:50 35.174186 -120.540285 134 35142ft 451kts
16-May-18 07:51 35.102254 -120.414450 134 35148ft 452kts
16-May-18 07:52 35.031809 -120.291396 134 35144ft 451kts
16-May-18 07:53 34.959854 -120.166330 135 35147ft 455kts
16-May-18 07:54 34.888715 -120.043248 136 35119ft 459kts
16-May-18 07:55 34.815552 -119.917279 136 35137ft 459kts
16-May-18 07:56 34.741604 -119.790893 136 35109ft 459kts
16-May-18 07:57 34.667711 -119.664505 136 35084ft 459kts
16-May-18 07:58 34.594607 -119.539757 136 35086ft 459kts
16-May-18 07:59 34.520730 -119.414136 136 35089ft 459kts
16-May-18 08:00 34.448042 -119.290693 136 35089ft 458kts
16-May-18 08:01 34.380658 -119.176807 136 35095ft 458kts
16-May-18 08:02 34.306456 -119.051902 136 35094ft 458kts
16-May-18 08:03 34.232142 -118.927241 136 35095ft 457kts
16-May-18 08:04 34.158037 -118.803364 135 35100ft 457kts
16-May-18 08:05 34.083731 -118.679576 135 35104ft 457kts
16-May-18 08:06 34.012348 -118.561054 135 35104ft 456kts
16-May-18 08:07 33.938024 -118.438085 136 35106ft 456kts
16-May-18 08:08 33.857468 -118.334082 143 35080ft 447kts
16-May-18 08:09 33.778684 -118.232084 143 33787ft 446kts
16-May-18 08:10 33.695389 -118.122847 142 31788ft 449kts
16-May-18 08:11 33.611352 -118.012586 141 29331ft 451kts
16-May-18 08:12 33.527108 -117.905612 144 26837ft 432kts
16-May-18 08:13 33.441558 -117.806755 142 24022ft 419kts
16-May-18 08:14 33.363042 -117.711164 141 21432ft 396kts
16-May-18 08:15 33.287423 -117.619145 140 18846ft 384kts
16-May-18 08:16 33.206740 -117.542014 150 16257ft 366kts
16-May-18 08:17 33.126119 -117.474588 149 13656ft 345kts
16-May-18 08:18 33.050570 -117.411525 148 11444ft 319kts
16-May-18 08:19 32.980920 -117.353117 146 9466ft 298kts
16-May-18 08:20 32.918540 -117.300585 147 8204ft 268kts
16-May-18 08:21 32.860597 -117.252560 146 7247ft 263kts
16-May-18 08:22 32.808709 -117.198020 106 6961ft 245kts
16-May-18 08:23 32.791556 -117.121863 104 6239ft 238kts
16-May-18 08:24 32.772649 -117.048519 114 5934ft 235kts
16-May-18 08:25 32.746636 -116.977544 106 5940ft 235kts
16-May-18 08:26 32.727038 -116.905365 106 5922ft 233kts
16-May-18 08:27 32.683933 -116.876344 228 5320ft 227kts
16-May-18 08:28 32.672513 -116.942055 286 4008ft 213kts
16-May-18 08:29 32.688098 -117.003362 287 3773ft 188kts
16-May-18 08:30 32.701785 -117.059045 287 2873ft 168kts
16-May-18 08:31 32.714710 -117.111678 288 1786ft 163kts
16-May-18 08:32 32.726369 -117.159885 287 490ft 152kts
16-May-18 08:33 32.735315 -117.197059 275 24ft 22kts
16-May-18 08:34 32.733807 -117.194994 106 24ft 17kts
16-May-18 08:35 32.732865 -117.195477 278 24ft 0kts
16-May-18 08:36 32.732865 -117.195477 278 24ft 0kts

Navigation Log

Ident Type
Flight plan parsing failed, navigation log unavailable